sensor_id;sensor_type;location;lat;lon;timestamp;temperature;humidity
6662;DHT22;3367;48.714;8.994;2023-02-23T00:00:08;7.90;99.90
6662;DHT22;3367;48.714;8.994;2023-02-23T00:02:46;7.90;99.90
6662;DHT22;3367;48.714;8.994;2023-02-23T00:05:13;7.90;99.90
6662;DHT22;3367;48.714;8.994;2023-02-23T00:07:41;7.90;99.90
6662;DHT22;3367;48.714;8.994;2023-02-23T00:10:13;7.90;99.90
6662;DHT22;3367;48.714;8.994;2023-02-23T00:12:40;8.00;1.00
6662;DHT22;3367;48.714;8.994;2023-02-23T00:15:08;7.90;1.00
6662;DHT22;3367;48.714;8.994;2023-02-23T00:17:35;8.00;1.00
6662;DHT22;3367;48.714;8.994;2023-02-23T00:20:04;8.00;1.00
6662;DHT22;3367;48.714;8.994;2023-02-23T00:22:37;8.00;1.00
6662;DHT22;3367;48.714;8.994;2023-02-23T00:25:05;7.90;92.40
6662;DHT22;3367;48.714;8.994;2023-02-23T00:27:35;7.90;99.90
6662;DHT22;3367;48.714;8.994;2023-02-23T00:30:04;7.90;99.90
6662;DHT22;3367;48.714;8.994;2023-02-23T00:32:31;7.90;1.00
6662;DHT22;3367;48.714;8.994;2023-02-23T00:34:59;7.90;1.00
6662;DHT22;3367;48.714;8.994;2023-02-23T00:37:26;7.90;1.00
6662;DHT22;3367;48.714;8.994;2023-02-23T00:39:55;7.90;1.00
6662;DHT22;3367;48.714;8.994;2023-02-23T00:42:22;7.90;1.00
6662;DHT22;3367;48.714;8.994;2023-02-23T00:44:55;7.80;1.00
6662;DHT22;3367;48.714;8.994;2023-02-23T00:47:22;7.80;1.00
6662;DHT22;3367;48.714;8.994;2023-02-23T00:49:48;7.80;66.90
6662;DHT22;3367;48.714;8.994;2023-02-23T00:52:15;7.70;99.90
6662;DHT22;3367;48.714;8.994;2023-02-23T00:54:42;7.70;99.90
6662;DHT22;3367;48.714;8.994;2023-02-23T00:57:08;7.70;99.90
6662;DHT22;3367;48.714;8.994;2023-02-23T00:59:35;7.70;99.90
6662;DHT22;3367;48.714;8.994;2023-02-23T01:02:03;7.70;1.00
6662;DHT22;3367;48.714;8.994;2023-02-23T01:04:30;7.60;1.00
6662;DHT22;3367;48.714;8.994;2023-02-23T01:06:57;7.60;1.00
6662;DHT22;3367;48.714;8.994;2023-02-23T01:09:24;7.60;99.90
6662;DHT22;3367;48.714;8.994;2023-02-23T01:11:54;7.60;99.90
6662;DHT22;3367;48.714;8.994;2023-02-23T01:14:22;7.60;1.00
6662;DHT22;3367;48.714;8.994;2023-02-23T01:16:48;7.60;1.00
6662;DHT22;3367;48.714;8.994;2023-02-23T01:19:17;7.60;1.00
6662;DHT22;3367;48.714;8.994;2023-02-23T01:21:43;7.60;1.00
6662;DHT22;3367;48.714;8.994;2023-02-23T01:24:11;7.60;1.00
6662;DHT22;3367;48.714;8.994;2023-02-23T01:26:40;7.60;99.50
6662;DHT22;3367;48.714;8.994;2023-02-23T01:29:09;7.60;99.90
6662;DHT22;3367;48.714;8.994;2023-02-23T01:31:37;7.70;99.90
6662;DHT22;3367;48.714;8.994;2023-02-23T01:34:05;7.70;99.90
6662;DHT22;3367;48.714;8.994;2023-02-23T01:36:35;7.70;1.00
6662;DHT22;3367;48.714;8.994;2023-02-23T01:39:03;7.70;1.00
6662;DHT22;3367;48.714;8.994;2023-02-23T01:41:33;7.70;1.00
6662;DHT22;3367;48.714;8.994;2023-02-23T01:44:02;7.70;1.00
6662;DHT22;3367;48.714;8.994;2023-02-23T01:46:31;7.70;1.00
6662;DHT22;3367;48.714;8.994;2023-02-23T01:48:58;7.80;1.00
6662;DHT22;3367;48.714;8.994;2023-02-23T01:51:28;7.80;1.00
6662;DHT22;3367;48.714;8.994;2023-02-23T01:54:01;7.80;1.00
6662;DHT22;3367;48.714;8.994;2023-02-23T01:56:33;7.90;1.00
6662;DHT22;3367;48.714;8.994;2023-02-23T01:59:04;7.80;1.00
6662;DHT22;3367;48.714;8.994;2023-02-23T02:01:32;7.80;1.00
6662;DHT22;3367;48.714;8.994;2023-02-23T02:04:01;7.90;1.00
6662;DHT22;3367;48.714;8.994;2023-02-23T02:06:30;7.90;1.00
6662;DHT22;3367;48.714;8.994;2023-02-23T02:09:01;7.80;1.00
6662;DHT22;3367;48.714;8.994;2023-02-23T02:11:31;7.90;1.00
6662;DHT22;3367;48.714;8.994;2023-02-23T02:14:03;7.80;1.00
6662;DHT22;3367;48.714;8.994;2023-02-23T02:16:53;7.80;1.00
6662;DHT22;3367;48.714;8.994;2023-02-23T02:19:58;7.80;1.00
6662;DHT22;3367;48.714;8.994;2023-02-23T02:25:50;7.90;1.00
6662;DHT22;3367;48.714;8.994;2023-02-23T02:28:54;7.90;1.00
6662;DHT22;3367;48.714;8.994;2023-02-23T02:31:59;7.90;13.40
6662;DHT22;3367;48.714;8.994;2023-02-23T02:37:47;7.90;27.10
6662;DHT22;3367;48.714;8.994;2023-02-23T02:40:26;7.90;39.80
6662;DHT22;3367;48.714;8.994;2023-02-23T02:42:59;7.90;31.00
6662;DHT22;3367;48.714;8.994;2023-02-23T02:45:41;7.90;1.00
6662;DHT22;3367;48.714;8.994;2023-02-23T02:48:16;7.90;13.50
6662;DHT22;3367;48.714;8.994;2023-02-23T02:50:48;7.90;55.70
6662;DHT22;3367;48.714;8.994;2023-02-23T02:53:23;7.90;57.10
6662;DHT22;3367;48.714;8.994;2023-02-23T02:55:51;7.90;80.10
6662;DHT22;3367;48.714;8.994;2023-02-23T02:58:21;7.90;99.90
6662;DHT22;3367;48.714;8.994;2023-02-23T03:00:50;7.90;99.90
6662;DHT22;3367;48.714;8.994;2023-02-23T03:03:37;7.90;99.90
6662;DHT22;3367;48.714;8.994;2023-02-23T03:06:25;7.90;99.90
6662;DHT22;3367;48.714;8.994;2023-02-23T03:09:19;7.90;99.90
6662;DHT22;3367;48.714;8.994;2023-02-23T03:12:10;7.90;99.90
6662;DHT22;3367;48.714;8.994;2023-02-23T03:15:03;7.90;99.90
6662;DHT22;3367;48.714;8.994;2023-02-23T03:17:59;7.90;99.90
6662;DHT22;3367;48.714;8.994;2023-02-23T03:20:49;7.80;99.90
6662;DHT22;3367;48.714;8.994;2023-02-23T03:23:45;7.90;99.90
6662;DHT22;3367;48.714;8.994;2023-02-23T03:26:37;7.80;99.90
6662;DHT22;3367;48.714;8.994;2023-02-23T03:29:31;7.80;99.90
6662;DHT22;3367;48.714;8.994;2023-02-23T03:32:21;7.80;99.90
6662;DHT22;3367;48.714;8.994;2023-02-23T03:35:13;7.90;99.90
6662;DHT22;3367;48.714;8.994;2023-02-23T03:38:04;7.90;99.90
6662;DHT22;3367;48.714;8.994;2023-02-23T03:40:50;7.90;99.90
6662;DHT22;3367;48.714;8.994;2023-02-23T03:43:42;7.90;99.90
6662;DHT22;3367;48.714;8.994;2023-02-23T03:46:29;7.90;99.90
6662;DHT22;3367;48.714;8.994;2023-02-23T03:49:15;7.80;99.90
6662;DHT22;3367;48.714;8.994;2023-02-23T03:52:04;7.80;99.90
6662;DHT22;3367;48.714;8.994;2023-02-23T03:54:53;7.70;1.00
6662;DHT22;3367;48.714;8.994;2023-02-23T03:57:40;7.70;1.00
6662;DHT22;3367;48.714;8.994;2023-02-23T04:00:29;7.70;1.00
6662;DHT22;3367;48.714;8.994;2023-02-23T04:03:16;7.70;1.00
6662;DHT22;3367;48.714;8.994;2023-02-23T04:06:02;7.70;1.00
6662;DHT22;3367;48.714;8.994;2023-02-23T04:08:48;7.70;1.00
6662;DHT22;3367;48.714;8.994;2023-02-23T04:11:38;7.70;1.00
6662;DHT22;3367;48.714;8.994;2023-02-23T04:14:26;7.70;1.00
6662;DHT22;3367;48.714;8.994;2023-02-23T04:16:55;7.70;1.00
6662;DHT22;3367;48.714;8.994;2023-02-23T04:19:25;7.70;1.00
6662;DHT22;3367;48.714;8.994;2023-02-23T04:21:52;7.70;1.00
6662;DHT22;3367;48.714;8.994;2023-02-23T04:24:19;7.70;1.00
6662;DHT22;3367;48.714;8.994;2023-02-23T04:26:46;7.70;1.00
6662;DHT22;3367;48.714;8.994;2023-02-23T04:29:12;7.70;1.00
6662;DHT22;3367;48.714;8.994;2023-02-23T04:31:39;7.70;1.00
6662;DHT22;3367;48.714;8.994;2023-02-23T04:34:08;7.70;1.00
6662;DHT22;3367;48.714;8.994;2023-02-23T04:36:35;7.60;1.00
6662;DHT22;3367;48.714;8.994;2023-02-23T04:39:02;7.60;1.00
6662;DHT22;3367;48.714;8.994;2023-02-23T04:41:28;7.60;1.00
6662;DHT22;3367;48.714;8.994;2023-02-23T04:43:55;7.60;1.00
6662;DHT22;3367;48.714;8.994;2023-02-23T04:46:22;7.60;1.00
6662;DHT22;3367;48.714;8.994;2023-02-23T04:48:48;7.60;1.00
6662;DHT22;3367;48.714;8.994;2023-02-23T04:51:16;7.60;1.00
6662;DHT22;3367;48.714;8.994;2023-02-23T04:53:43;7.60;1.00
6662;DHT22;3367;48.714;8.994;2023-02-23T04:56:10;7.60;1.00
6662;DHT22;3367;48.714;8.994;2023-02-23T04:58:37;7.60;1.00
6662;DHT22;3367;48.714;8.994;2023-02-23T05:01:05;7.60;1.00
6662;DHT22;3367;48.714;8.994;2023-02-23T05:03:31;7.60;1.00
6662;DHT22;3367;48.714;8.994;2023-02-23T05:05:58;7.60;1.00
6662;DHT22;3367;48.714;8.994;2023-02-23T05:08:26;7.50;1.00
6662;DHT22;3367;48.714;8.994;2023-02-23T05:10:53;7.60;1.00
6662;DHT22;3367;48.714;8.994;2023-02-23T05:13:20;7.60;1.00
6662;DHT22;3367;48.714;8.994;2023-02-23T05:15:47;7.60;1.00
6662;DHT22;3367;48.714;8.994;2023-02-23T05:18:14;7.60;1.00
6662;DHT22;3367;48.714;8.994;2023-02-23T05:20:41;7.60;1.00
6662;DHT22;3367;48.714;8.994;2023-02-23T05:23:09;7.60;1.00
6662;DHT22;3367;48.714;8.994;2023-02-23T05:25:38;7.60;1.00
6662;DHT22;3367;48.714;8.994;2023-02-23T05:28:05;7.60;1.00
6662;DHT22;3367;48.714;8.994;2023-02-23T05:30:32;7.50;1.00
6662;DHT22;3367;48.714;8.994;2023-02-23T05:32:59;7.50;1.00
6662;DHT22;3367;48.714;8.994;2023-02-23T05:35:25;7.50;1.00
6662;DHT22;3367;48.714;8.994;2023-02-23T05:37:52;7.50;1.00
6662;DHT22;3367;48.714;8.994;2023-02-23T05:40:19;7.50;1.00
6662;DHT22;3367;48.714;8.994;2023-02-23T05:42:47;7.60;1.00
6662;DHT22;3367;48.714;8.994;2023-02-23T05:45:13;7.60;1.00
6662;DHT22;3367;48.714;8.994;2023-02-23T05:47:40;7.60;1.00
6662;DHT22;3367;48.714;8.994;2023-02-23T05:50:09;7.60;1.00
6662;DHT22;3367;48.714;8.994;2023-02-23T05:52:37;7.50;1.00
6662;DHT22;3367;48.714;8.994;2023-02-23T05:55:06;7.50;1.00
6662;DHT22;3367;48.714;8.994;2023-02-23T05:57:34;7.60;1.00
6662;DHT22;3367;48.714;8.994;2023-02-23T06:00:03;7.60;1.00
6662;DHT22;3367;48.714;8.994;2023-02-23T06:02:31;7.60;1.00
6662;DHT22;3367;48.714;8.994;2023-02-23T06:04:58;7.50;1.00
6662;DHT22;3367;48.714;8.994;2023-02-23T06:07:25;7.50;1.00
6662;DHT22;3367;48.714;8.994;2023-02-23T06:09:52;7.50;1.00
6662;DHT22;3367;48.714;8.994;2023-02-23T06:12:19;7.50;1.00
6662;DHT22;3367;48.714;8.994;2023-02-23T06:14:45;7.50;1.00
6662;DHT22;3367;48.714;8.994;2023-02-23T06:17:14;7.50;1.00
6662;DHT22;3367;48.714;8.994;2023-02-23T06:19:40;7.50;1.00
6662;DHT22;3367;48.714;8.994;2023-02-23T06:22:07;7.50;1.00
6662;DHT22;3367;48.714;8.994;2023-02-23T06:24:34;7.50;1.00
6662;DHT22;3367;48.714;8.994;2023-02-23T06:27:00;7.50;1.00
6662;DHT22;3367;48.714;8.994;2023-02-23T06:29:27;7.50;1.00
6662;DHT22;3367;48.714;8.994;2023-02-23T06:31:54;7.60;1.00
6662;DHT22;3367;48.714;8.994;2023-02-23T06:34:22;7.50;1.00
6662;DHT22;3367;48.714;8.994;2023-02-23T06:36:48;7.50;1.00
6662;DHT22;3367;48.714;8.994;2023-02-23T06:39:15;7.50;1.00
6662;DHT22;3367;48.714;8.994;2023-02-23T06:41:42;7.50;1.00
6662;DHT22;3367;48.714;8.994;2023-02-23T06:44:09;7.50;1.00
6662;DHT22;3367;48.714;8.994;2023-02-23T06:46:35;7.40;1.00
6662;DHT22;3367;48.714;8.994;2023-02-23T06:49:02;7.50;2.40
6662;DHT22;3367;48.714;8.994;2023-02-23T06:51:31;7.50;30.00
6662;DHT22;3367;48.714;8.994;2023-02-23T06:53:57;7.50;22.90
6662;DHT22;3367;48.714;8.994;2023-02-23T06:56:24;7.50;51.80
6662;DHT22;3367;48.714;8.994;2023-02-23T06:58:51;7.60;67.10
6662;DHT22;3367;48.714;8.994;2023-02-23T07:01:18;7.50;88.10
6662;DHT22;3367;48.714;8.994;2023-02-23T07:03:45;7.50;96.10
6662;DHT22;3367;48.714;8.994;2023-02-23T07:06:12;7.50;99.90
6662;DHT22;3367;48.714;8.994;2023-02-23T07:08:40;7.50;99.90
6662;DHT22;3367;48.714;8.994;2023-02-23T07:11:07;7.50;99.90
6662;DHT22;3367;48.714;8.994;2023-02-23T07:13:34;7.50;99.90
6662;DHT22;3367;48.714;8.994;2023-02-23T07:16:02;7.60;99.90
6662;DHT22;3367;48.714;8.994;2023-02-23T07:18:29;7.60;99.90
6662;DHT22;3367;48.714;8.994;2023-02-23T07:20:55;7.60;99.90
6662;DHT22;3367;48.714;8.994;2023-02-23T07:23:23;7.70;99.90
6662;DHT22;3367;48.714;8.994;2023-02-23T07:25:51;7.70;99.90
6662;DHT22;3367;48.714;8.994;2023-02-23T07:28:19;7.80;99.90
6662;DHT22;3367;48.714;8.994;2023-02-23T07:30:46;7.90;99.90
6662;DHT22;3367;48.714;8.994;2023-02-23T07:33:14;8.00;99.90
6662;DHT22;3367;48.714;8.994;2023-02-23T07:35:41;8.10;99.90
6662;DHT22;3367;48.714;8.994;2023-02-23T07:38:09;8.10;99.90
6662;DHT22;3367;48.714;8.994;2023-02-23T07:40:37;8.10;99.90
6662;DHT22;3367;48.714;8.994;2023-02-23T07:43:05;8.20;78.70
6662;DHT22;3367;48.714;8.994;2023-02-23T07:45:31;8.30;90.00
6662;DHT22;3367;48.714;8.994;2023-02-23T07:47:58;8.40;1.00
6662;DHT22;3367;48.714;8.994;2023-02-23T07:50:25;8.40;1.00
6662;DHT22;3367;48.714;8.994;2023-02-23T07:52:52;8.50;1.00
6662;DHT22;3367;48.714;8.994;2023-02-23T07:55:19;8.60;1.00
6662;DHT22;3367;48.714;8.994;2023-02-23T07:57:46;8.70;99.90
6662;DHT22;3367;48.714;8.994;2023-02-23T08:00:16;8.80;1.00
6662;DHT22;3367;48.714;8.994;2023-02-23T08:02:42;8.80;1.00
6662;DHT22;3367;48.714;8.994;2023-02-23T08:05:10;8.80;99.90
6662;DHT22;3367;48.714;8.994;2023-02-23T08:07:37;8.80;1.00
6662;DHT22;3367;48.714;8.994;2023-02-23T08:10:04;8.80;1.00
6662;DHT22;3367;48.714;8.994;2023-02-23T08:12:31;8.90;1.00
6662;DHT22;3367;48.714;8.994;2023-02-23T08:14:58;9.00;99.90
6662;DHT22;3367;48.714;8.994;2023-02-23T08:17:26;9.10;19.00
6662;DHT22;3367;48.714;8.994;2023-02-23T08:19:54;9.10;1.00
6662;DHT22;3367;48.714;8.994;2023-02-23T08:22:21;9.10;1.00
6662;DHT22;3367;48.714;8.994;2023-02-23T08:24:48;9.30;1.00
6662;DHT22;3367;48.714;8.994;2023-02-23T08:27:14;9.40;1.00
6662;DHT22;3367;48.714;8.994;2023-02-23T08:29:41;9.30;1.00
6662;DHT22;3367;48.714;8.994;2023-02-23T08:32:08;9.30;99.90
6662;DHT22;3367;48.714;8.994;2023-02-23T08:34:38;9.40;99.90
6662;DHT22;3367;48.714;8.994;2023-02-23T08:37:05;9.50;99.90
6662;DHT22;3367;48.714;8.994;2023-02-23T08:39:32;9.40;99.90
6662;DHT22;3367;48.714;8.994;2023-02-23T08:41:58;9.40;99.90
6662;DHT22;3367;48.714;8.994;2023-02-23T08:44:25;9.60;99.90
6662;DHT22;3367;48.714;8.994;2023-02-23T08:46:52;9.60;1.00
6662;DHT22;3367;48.714;8.994;2023-02-23T08:49:21;9.70;1.00
6662;DHT22;3367;48.714;8.994;2023-02-23T08:51:50;9.80;1.00
6662;DHT22;3367;48.714;8.994;2023-02-23T08:54:17;9.90;1.00
6662;DHT22;3367;48.714;8.994;2023-02-23T08:56:45;10.00;1.00
6662;DHT22;3367;48.714;8.994;2023-02-23T08:59:13;10.10;1.00
6662;DHT22;3367;48.714;8.994;2023-02-23T09:01:39;10.20;1.00
6662;DHT22;3367;48.714;8.994;2023-02-23T09:04:07;10.20;99.90
6662;DHT22;3367;48.714;8.994;2023-02-23T09:06:35;10.20;99.90
6662;DHT22;3367;48.714;8.994;2023-02-23T09:09:03;10.30;99.90
6662;DHT22;3367;48.714;8.994;2023-02-23T09:11:30;10.30;99.90
6662;DHT22;3367;48.714;8.994;2023-02-23T09:13:57;10.40;99.90
6662;DHT22;3367;48.714;8.994;2023-02-23T09:16:24;10.40;72.10
6662;DHT22;3367;48.714;8.994;2023-02-23T09:18:50;10.50;1.00
6662;DHT22;3367;48.714;8.994;2023-02-23T09:21:19;10.60;72.50
6662;DHT22;3367;48.714;8.994;2023-02-23T09:23:50;10.70;90.60
6662;DHT22;3367;48.714;8.994;2023-02-23T09:26:20;10.90;1.00
6662;DHT22;3367;48.714;8.994;2023-02-23T09:28:47;10.90;1.00
6662;DHT22;3367;48.714;8.994;2023-02-23T09:31:16;11.00;1.00
6662;DHT22;3367;48.714;8.994;2023-02-23T09:33:43;11.00;1.00
6662;DHT22;3367;48.714;8.994;2023-02-23T09:36:12;11.00;1.00
6662;DHT22;3367;48.714;8.994;2023-02-23T09:38:40;11.10;1.00
6662;DHT22;3367;48.714;8.994;2023-02-23T09:41:28;11.20;1.00
6662;DHT22;3367;48.714;8.994;2023-02-23T09:44:02;11.20;1.00
6662;DHT22;3367;48.714;8.994;2023-02-23T09:46:38;11.30;1.00
6662;DHT22;3367;48.714;8.994;2023-02-23T09:49:13;11.50;1.00
6662;DHT22;3367;48.714;8.994;2023-02-23T09:51:45;11.50;1.00
6662;DHT22;3367;48.714;8.994;2023-02-23T09:54:15;11.60;99.90
6662;DHT22;3367;48.714;8.994;2023-02-23T09:56:46;11.80;99.90
6662;DHT22;3367;48.714;8.994;2023-02-23T09:59:15;11.70;64.50
6662;DHT22;3367;48.714;8.994;2023-02-23T10:01:55;11.70;99.90
6662;DHT22;3367;48.714;8.994;2023-02-23T10:04:27;11.70;99.90
6662;DHT22;3367;48.714;8.994;2023-02-23T10:06:59;11.90;99.90
6662;DHT22;3367;48.714;8.994;2023-02-23T10:09:41;12.00;1.00
6662;DHT22;3367;48.714;8.994;2023-02-23T10:12:16;12.00;91.40
6662;DHT22;3367;48.714;8.994;2023-02-23T10:14:59;12.20;15.30
6662;DHT22;3367;48.714;8.994;2023-02-23T10:17:34;12.40;13.70
6662;DHT22;3367;48.714;8.994;2023-02-23T10:20:12;12.70;1.00
6662;DHT22;3367;48.714;8.994;2023-02-23T10:22:45;12.80;1.00
6662;DHT22;3367;48.714;8.994;2023-02-23T10:25:16;12.90;1.00
6662;DHT22;3367;48.714;8.994;2023-02-23T10:27:47;13.00;1.00
6662;DHT22;3367;48.714;8.994;2023-02-23T10:30:20;13.00;1.00
6662;DHT22;3367;48.714;8.994;2023-02-23T10:32:57;13.10;1.00
6662;DHT22;3367;48.714;8.994;2023-02-23T10:35:27;13.20;99.90
6662;DHT22;3367;48.714;8.994;2023-02-23T10:37:55;13.40;99.90
6662;DHT22;3367;48.714;8.994;2023-02-23T10:40:24;13.40;99.90
6662;DHT22;3367;48.714;8.994;2023-02-23T10:42:55;13.50;99.90
6662;DHT22;3367;48.714;8.994;2023-02-23T10:45:25;13.50;99.90
6662;DHT22;3367;48.714;8.994;2023-02-23T10:47:55;13.60;1.60
6662;DHT22;3367;48.714;8.994;2023-02-23T10:50:22;13.60;1.00
6662;DHT22;3367;48.714;8.994;2023-02-23T10:52:54;13.50;1.00
6662;DHT22;3367;48.714;8.994;2023-02-23T10:55:25;13.40;1.00
6662;DHT22;3367;48.714;8.994;2023-02-23T10:58:03;13.50;1.00
6662;DHT22;3367;48.714;8.994;2023-02-23T11:00:31;13.60;2.30
6662;DHT22;3367;48.714;8.994;2023-02-23T11:03:01;13.60;1.00
6662;DHT22;3367;48.714;8.994;2023-02-23T11:05:47;13.50;1.00
6662;DHT22;3367;48.714;8.994;2023-02-23T11:08:23;13.50;1.00
6662;DHT22;3367;48.714;8.994;2023-02-23T11:11:19;13.50;1.00
6662;DHT22;3367;48.714;8.994;2023-02-23T11:13:51;13.50;1.00
6662;DHT22;3367;48.714;8.994;2023-02-23T11:16:19;13.50;1.00
6662;DHT22;3367;48.714;8.994;2023-02-23T11:18:52;13.60;1.00
6662;DHT22;3367;48.714;8.994;2023-02-23T11:21:24;13.70;1.00
6662;DHT22;3367;48.714;8.994;2023-02-23T11:23:52;13.90;1.00
6662;DHT22;3367;48.714;8.994;2023-02-23T11:26:34;14.00;1.00
6662;DHT22;3367;48.714;8.994;2023-02-23T11:29:11;13.80;1.00
6662;DHT22;3367;48.714;8.994;2023-02-23T11:31:39;13.70;1.00
6662;DHT22;3367;48.714;8.994;2023-02-23T11:34:06;13.80;1.00
6662;DHT22;3367;48.714;8.994;2023-02-23T11:36:34;14.00;1.00
6662;DHT22;3367;48.714;8.994;2023-02-23T11:39:18;14.10;1.00
6662;DHT22;3367;48.714;8.994;2023-02-23T11:42:03;14.10;1.00
6662;DHT22;3367;48.714;8.994;2023-02-23T11:44:31;13.90;1.00
6662;DHT22;3367;48.714;8.994;2023-02-23T11:46:58;14.00;1.00
6662;DHT22;3367;48.714;8.994;2023-02-23T11:49:28;14.00;1.00
6662;DHT22;3367;48.714;8.994;2023-02-23T11:51:56;13.90;1.00
6662;DHT22;3367;48.714;8.994;2023-02-23T11:54:27;13.80;1.00
6662;DHT22;3367;48.714;8.994;2023-02-23T11:56:55;13.60;1.00
6662;DHT22;3367;48.714;8.994;2023-02-23T11:59:26;13.50;1.00
6662;DHT22;3367;48.714;8.994;2023-02-23T12:02:05;13.50;1.00
6662;DHT22;3367;48.714;8.994;2023-02-23T12:04:48;13.60;1.00
6662;DHT22;3367;48.714;8.994;2023-02-23T12:07:30;13.70;1.00
6662;DHT22;3367;48.714;8.994;2023-02-23T12:10:13;13.70;1.00
6662;DHT22;3367;48.714;8.994;2023-02-23T12:12:48;13.60;1.00
6662;DHT22;3367;48.714;8.994;2023-02-23T12:15:23;13.70;1.00
6662;DHT22;3367;48.714;8.994;2023-02-23T12:17:55;13.80;1.00
6662;DHT22;3367;48.714;8.994;2023-02-23T12:20:25;13.90;1.00
6662;DHT22;3367;48.714;8.994;2023-02-23T12:22:56;13.80;1.00
6662;DHT22;3367;48.714;8.994;2023-02-23T12:25:26;13.70;1.00
6662;DHT22;3367;48.714;8.994;2023-02-23T12:28:00;13.80;1.00
6662;DHT22;3367;48.714;8.994;2023-02-23T12:30:38;13.80;1.00
6662;DHT22;3367;48.714;8.994;2023-02-23T12:33:12;13.80;1.00
6662;DHT22;3367;48.714;8.994;2023-02-23T12:35:45;13.80;1.00
6662;DHT22;3367;48.714;8.994;2023-02-23T12:38:21;13.80;1.00
6662;DHT22;3367;48.714;8.994;2023-02-23T12:40:55;13.80;1.00
6662;DHT22;3367;48.714;8.994;2023-02-23T12:43:31;13.70;1.00
6662;DHT22;3367;48.714;8.994;2023-02-23T12:46:06;13.90;1.00
6662;DHT22;3367;48.714;8.994;2023-02-23T12:48:44;13.90;1.00
6662;DHT22;3367;48.714;8.994;2023-02-23T12:51:18;13.90;1.00
6662;DHT22;3367;48.714;8.994;2023-02-23T12:53:46;13.90;1.00
6662;DHT22;3367;48.714;8.994;2023-02-23T12:56:26;13.80;1.00
6662;DHT22;3367;48.714;8.994;2023-02-23T12:59:03;13.70;1.00
6662;DHT22;3367;48.714;8.994;2023-02-23T13:01:41;13.60;1.00
6662;DHT22;3367;48.714;8.994;2023-02-23T13:04:22;13.50;1.00
6662;DHT22;3367;48.714;8.994;2023-02-23T13:06:56;13.50;1.00
6662;DHT22;3367;48.714;8.994;2023-02-23T13:09:35;13.50;1.00
6662;DHT22;3367;48.714;8.994;2023-02-23T13:12:18;13.40;1.00
6662;DHT22;3367;48.714;8.994;2023-02-23T13:14:52;13.30;1.00
6662;DHT22;3367;48.714;8.994;2023-02-23T13:17:30;13.30;1.00
6662;DHT22;3367;48.714;8.994;2023-02-23T13:20:07;13.20;1.00
6662;DHT22;3367;48.714;8.994;2023-02-23T13:22:43;13.10;1.00
6662;DHT22;3367;48.714;8.994;2023-02-23T13:25:21;13.00;1.00
6662;DHT22;3367;48.714;8.994;2023-02-23T13:27:52;12.90;1.00
6662;DHT22;3367;48.714;8.994;2023-02-23T13:30:21;12.70;1.00
6662;DHT22;3367;48.714;8.994;2023-02-23T13:32:47;12.70;1.00
6662;DHT22;3367;48.714;8.994;2023-02-23T13:35:17;12.70;1.00
6662;DHT22;3367;48.714;8.994;2023-02-23T13:37:49;12.70;6.80
6662;DHT22;3367;48.714;8.994;2023-02-23T13:40:26;12.70;11.00
6662;DHT22;3367;48.714;8.994;2023-02-23T13:43:00;12.70;8.10
6662;DHT22;3367;48.714;8.994;2023-02-23T13:45:47;12.70;1.00
6662;DHT22;3367;48.714;8.994;2023-02-23T13:48:23;12.60;47.10
6662;DHT22;3367;48.714;8.994;2023-02-23T13:50:56;12.50;99.90
6662;DHT22;3367;48.714;8.994;2023-02-23T13:53:33;12.40;99.90
6662;DHT22;3367;48.714;8.994;2023-02-23T13:56:05;12.20;99.90
6662;DHT22;3367;48.714;8.994;2023-02-23T13:58:33;12.30;99.90
6662;DHT22;3367;48.714;8.994;2023-02-23T14:01:07;12.20;99.90
6662;DHT22;3367;48.714;8.994;2023-02-23T14:03:41;12.10;99.90
6662;DHT22;3367;48.714;8.994;2023-02-23T14:06:13;12.10;99.90
6662;DHT22;3367;48.714;8.994;2023-02-23T14:08:42;12.00;1.00
6662;DHT22;3367;48.714;8.994;2023-02-23T14:11:45;11.90;1.00
6662;DHT22;3367;48.714;8.994;2023-02-23T14:14:15;11.90;1.00
6662;DHT22;3367;48.714;8.994;2023-02-23T14:17:38;11.80;1.00
6662;DHT22;3367;48.714;8.994;2023-02-23T14:20:14;11.70;1.00
6662;DHT22;3367;48.714;8.994;2023-02-23T14:25:49;11.40;1.00
6662;DHT22;3367;48.714;8.994;2023-02-23T14:28:28;11.30;1.00
6662;DHT22;3367;48.714;8.994;2023-02-23T14:31:01;11.20;1.00
6662;DHT22;3367;48.714;8.994;2023-02-23T14:33:37;11.20;1.00
6662;DHT22;3367;48.714;8.994;2023-02-23T14:36:40;11.20;1.00
6662;DHT22;3367;48.714;8.994;2023-02-23T14:39:14;11.20;1.00
6662;DHT22;3367;48.714;8.994;2023-02-23T14:41:48;11.30;1.00
6662;DHT22;3367;48.714;8.994;2023-02-23T14:44:17;11.30;1.00
6662;DHT22;3367;48.714;8.994;2023-02-23T14:46:49;11.40;1.00
6662;DHT22;3367;48.714;8.994;2023-02-23T14:49:20;11.40;1.00
6662;DHT22;3367;48.714;8.994;2023-02-23T14:51:48;11.40;1.00
6662;DHT22;3367;48.714;8.994;2023-02-23T14:54:26;11.40;1.00
6662;DHT22;3367;48.714;8.994;2023-02-23T14:56:57;11.30;1.00
6662;DHT22;3367;48.714;8.994;2023-02-23T14:59:26;11.20;1.00
6662;DHT22;3367;48.714;8.994;2023-02-23T15:01:55;11.20;1.00
6662;DHT22;3367;48.714;8.994;2023-02-23T15:04:26;11.20;1.00
6662;DHT22;3367;48.714;8.994;2023-02-23T15:06:57;11.10;1.00
6662;DHT22;3367;48.714;8.994;2023-02-23T15:09:31;11.10;1.00
6662;DHT22;3367;48.714;8.994;2023-02-23T15:12:08;11.10;1.00
6662;DHT22;3367;48.714;8.994;2023-02-23T15:14:37;11.10;1.00
6662;DHT22;3367;48.714;8.994;2023-02-23T15:17:04;11.20;1.00
6662;DHT22;3367;48.714;8.994;2023-02-23T15:19:33;11.10;1.00
6662;DHT22;3367;48.714;8.994;2023-02-23T15:22:04;11.10;1.00
6662;DHT22;3367;48.714;8.994;2023-02-23T15:24:40;11.10;1.00
6662;DHT22;3367;48.714;8.994;2023-02-23T15:27:17;11.10;1.00
6662;DHT22;3367;48.714;8.994;2023-02-23T15:29:45;11.10;1.00
6662;DHT22;3367;48.714;8.994;2023-02-23T15:32:16;11.10;1.00
6662;DHT22;3367;48.714;8.994;2023-02-23T15:34:43;11.10;1.00
6662;DHT22;3367;48.714;8.994;2023-02-23T15:37:27;11.00;1.00
6662;DHT22;3367;48.714;8.994;2023-02-23T15:39:58;10.90;1.00
6662;DHT22;3367;48.714;8.994;2023-02-23T15:42:31;10.80;1.00
6662;DHT22;3367;48.714;8.994;2023-02-23T15:44:59;10.80;1.00
6662;DHT22;3367;48.714;8.994;2023-02-23T15:47:31;10.70;1.00
6662;DHT22;3367;48.714;8.994;2023-02-23T15:50:02;10.70;1.00
6662;DHT22;3367;48.714;8.994;2023-02-23T15:52:31;10.70;1.00
6662;DHT22;3367;48.714;8.994;2023-02-23T15:55:03;10.70;1.00
6662;DHT22;3367;48.714;8.994;2023-02-23T15:57:42;10.70;1.00
6662;DHT22;3367;48.714;8.994;2023-02-23T16:00:15;10.60;1.00
6662;DHT22;3367;48.714;8.994;2023-02-23T16:02:47;10.60;1.00
6662;DHT22;3367;48.714;8.994;2023-02-23T16:05:19;10.50;1.00
6662;DHT22;3367;48.714;8.994;2023-02-23T16:07:46;10.50;27.20
6662;DHT22;3367;48.714;8.994;2023-02-23T16:10:21;10.50;21.70
6662;DHT22;3367;48.714;8.994;2023-02-23T16:12:50;10.40;13.00
6662;DHT22;3367;48.714;8.994;2023-02-23T16:15:23;10.40;49.30
6662;DHT22;3367;48.714;8.994;2023-02-23T16:17:53;10.40;69.80
6662;DHT22;3367;48.714;8.994;2023-02-23T16:20:28;10.30;83.80
6662;DHT22;3367;48.714;8.994;2023-02-23T16:22:56;10.30;99.90
6662;DHT22;3367;48.714;8.994;2023-02-23T16:25:25;10.30;99.90
6662;DHT22;3367;48.714;8.994;2023-02-23T16:27:58;10.30;94.00
6662;DHT22;3367;48.714;8.994;2023-02-23T16:30:34;10.20;72.80
6662;DHT22;3367;48.714;8.994;2023-02-23T16:33:12;10.20;99.90
6662;DHT22;3367;48.714;8.994;2023-02-23T16:35:46;10.10;99.90
6662;DHT22;3367;48.714;8.994;2023-02-23T16:38:14;10.10;99.90
6662;DHT22;3367;48.714;8.994;2023-02-23T16:40:46;10.10;99.90
6662;DHT22;3367;48.714;8.994;2023-02-23T16:43:14;10.00;99.90
6662;DHT22;3367;48.714;8.994;2023-02-23T16:45:41;10.00;99.90
6662;DHT22;3367;48.714;8.994;2023-02-23T16:48:12;10.00;99.90
6662;DHT22;3367;48.714;8.994;2023-02-23T16:50:39;9.90;99.90
6662;DHT22;3367;48.714;8.994;2023-02-23T16:53:06;9.90;99.90
6662;DHT22;3367;48.714;8.994;2023-02-23T16:55:36;9.90;99.90
6662;DHT22;3367;48.714;8.994;2023-02-23T16:58:08;9.90;99.90
6662;DHT22;3367;48.714;8.994;2023-02-23T17:00:37;9.90;99.90
6662;DHT22;3367;48.714;8.994;2023-02-23T17:03:04;9.80;99.90